createdAt,value
2023-08-11T00:02:02.463Z,17.05
2023-08-11T00:04:30.400Z,17.05
2023-08-11T00:06:58.389Z,17.06
2023-08-11T00:09:27.684Z,17.05
2023-08-11T00:11:56.429Z,17.05
2023-08-11T00:14:23.714Z,17.05
2023-08-11T00:16:50.963Z,17.04
2023-08-11T00:19:18.258Z,17.03
2023-08-11T00:21:45.779Z,17.03
2023-08-11T00:24:13.067Z,17.02
2023-08-11T00:26:40.306Z,17.03
2023-08-11T00:29:07.939Z,17.04
2023-08-11T00:31:36.895Z,17.02
2023-08-11T00:34:04.524Z,17.02
2023-08-11T00:36:32.092Z,17.02
2023-08-11T00:39:01.586Z,17.01
2023-08-11T00:41:29.168Z,17.01
2023-08-11T00:43:56.579Z,17.01
2023-08-11T00:46:25.602Z,16.99
2023-08-11T00:48:52.988Z,16.99
2023-08-11T00:51:23.797Z,16.97
2023-08-11T00:53:52.629Z,16.98
2023-08-11T00:56:23.646Z,16.95
2023-08-11T00:58:52.515Z,16.94
2023-08-11T01:01:20.455Z,16.91
2023-08-11T01:03:49.084Z,16.88
2023-08-11T01:06:35.923Z,16.85
2023-08-11T01:09:13.281Z,16.81
2023-08-11T01:11:59.993Z,16.77
2023-08-11T01:15:03.833Z,16.72
2023-08-11T01:17:34.064Z,16.66
2023-08-11T01:20:03.874Z,16.61
2023-08-11T01:22:35.314Z,16.55
2023-08-11T01:25:03.143Z,16.50
2023-08-11T01:27:31.558Z,16.45
2023-08-11T01:29:58.888Z,16.38
2023-08-11T01:32:26.199Z,16.32
2023-08-11T01:34:53.601Z,16.26
2023-08-11T01:37:20.962Z,16.22
2023-08-11T01:39:48.295Z,16.16
2023-08-11T01:42:16.578Z,16.12
2023-08-11T01:44:44.568Z,16.08
2023-08-11T01:47:12.701Z,16.03
2023-08-11T01:49:41.159Z,15.98
2023-08-11T01:52:09.386Z,15.95
2023-08-11T01:54:37.171Z,15.91
2023-08-11T01:57:06.649Z,15.87
2023-08-11T01:59:34.097Z,15.83
2023-08-11T02:02:01.537Z,15.81
2023-08-11T02:04:29.653Z,15.77
2023-08-11T02:06:56.948Z,15.75
2023-08-11T02:09:24.276Z,15.72
2023-08-11T02:11:51.553Z,15.69
2023-08-11T02:14:18.969Z,15.67
2023-08-11T02:16:46.319Z,15.64
2023-08-11T02:19:13.618Z,15.62
2023-08-11T02:21:40.912Z,15.59
2023-08-11T02:24:08.294Z,15.57
2023-08-11T02:26:35.637Z,15.54
2023-08-11T02:29:04.938Z,15.52
2023-08-11T02:31:34.203Z,15.50
2023-08-11T02:34:05.017Z,15.47
2023-08-11T02:36:32.302Z,15.44
2023-08-11T02:38:59.569Z,15.41
2023-08-11T02:41:27.169Z,15.39
2023-08-11T02:43:54.455Z,15.35
2023-08-11T02:46:21.814Z,15.34
2023-08-11T02:48:49.180Z,15.32
2023-08-11T02:51:17.260Z,15.29
2023-08-11T02:53:45.406Z,15.27
2023-08-11T02:56:16.434Z,15.26
2023-08-11T02:58:43.952Z,15.24
2023-08-11T03:01:11.405Z,15.22
2023-08-11T03:03:39.271Z,15.18
2023-08-11T03:06:06.568Z,15.17
2023-08-11T03:08:33.880Z,15.15
2023-08-11T03:11:01.327Z,15.14
2023-08-11T03:13:34.668Z,15.13
2023-08-11T03:16:02.086Z,15.11
2023-08-11T03:18:30.464Z,15.09
2023-08-11T03:21:13.732Z,15.08
2023-08-11T03:23:46.483Z,15.06
2023-08-11T03:26:14.730Z,15.04
2023-08-11T03:28:42.520Z,15.04
2023-08-11T03:31:11.150Z,15.02
2023-08-11T03:33:41.840Z,15.00
2023-08-11T03:36:12.846Z,14.98
2023-08-11T03:38:40.449Z,14.98
2023-08-11T03:41:07.797Z,14.98
2023-08-11T03:43:35.227Z,14.97
2023-08-11T03:46:02.573Z,14.97
2023-08-11T03:48:30.079Z,14.96
2023-08-11T03:51:02.474Z,14.94
2023-08-11T03:53:31.414Z,14.96
2023-08-11T03:55:59.075Z,14.94
2023-08-11T03:58:29.296Z,14.92
2023-08-11T04:00:56.979Z,14.91
2023-08-11T04:03:29.342Z,14.91
2023-08-11T04:05:56.911Z,14.90
2023-08-11T04:08:24.681Z,14.90
2023-08-11T04:10:52.286Z,14.91
2023-08-11T04:13:19.720Z,14.91
2023-08-11T04:15:51.462Z,14.90
2023-08-11T04:18:20.572Z,14.90
2023-08-11T04:20:48.686Z,14.90
2023-08-11T04:23:16.078Z,14.90
2023-08-11T04:25:44.525Z,14.90
2023-08-11T04:28:12.081Z,14.91
2023-08-11T04:30:39.905Z,14.92
2023-08-11T04:33:08.844Z,14.93
2023-08-11T04:35:37.372Z,14.94
2023-08-11T04:38:06.615Z,14.96
2023-08-11T04:40:36.674Z,14.97
2023-08-11T04:43:05.384Z,14.99
2023-08-11T04:45:37.385Z,15.02
2023-08-11T04:48:06.241Z,15.05
2023-08-11T04:50:35.699Z,15.07
2023-08-11T04:53:03.494Z,15.11
2023-08-11T04:55:32.376Z,15.26
2023-08-11T04:58:02.099Z,15.77
2023-08-11T05:00:30.742Z,16.02
2023-08-11T05:02:58.867Z,16.22
2023-08-11T05:05:27.495Z,16.49
2023-08-11T05:07:55.260Z,16.76
2023-08-11T05:10:22.726Z,17.04
2023-08-11T05:12:50.568Z,17.20
2023-08-11T05:15:17.984Z,17.30
2023-08-11T05:17:45.397Z,17.36
2023-08-11T05:20:15.791Z,17.49
2023-08-11T05:22:44.984Z,17.64
2023-08-11T05:25:12.902Z,18.08
2023-08-11T05:27:40.412Z,18.57
2023-08-11T05:30:09.614Z,18.80
2023-08-11T05:32:37.254Z,19.06
2023-08-11T05:35:04.835Z,19.01
2023-08-11T05:37:32.194Z,18.89
2023-08-11T05:40:00.090Z,18.76
2023-08-11T05:42:27.512Z,18.59
2023-08-11T05:44:54.763Z,18.49
2023-08-11T05:47:22.144Z,18.39
2023-08-11T05:49:49.502Z,18.33
2023-08-11T05:52:16.801Z,18.52
2023-08-11T05:54:44.110Z,18.83
2023-08-11T05:57:11.616Z,18.87
2023-08-11T05:59:39.089Z,18.87
2023-08-11T06:02:06.613Z,19.05
2023-08-11T06:04:34.067Z,19.41
2023-08-11T06:07:01.349Z,19.82
2023-08-11T06:09:28.726Z,20.25
2023-08-11T06:11:56.397Z,20.53
2023-08-11T06:14:23.807Z,20.54
2023-08-11T06:16:51.041Z,20.50
2023-08-11T06:19:18.382Z,20.42
2023-08-11T06:21:46.732Z,20.32
2023-08-11T06:24:14.073Z,20.20
2023-08-11T06:26:41.424Z,20.09
2023-08-11T06:29:09.864Z,20.00
2023-08-11T06:31:37.164Z,19.93
2023-08-11T06:34:04.546Z,19.86
2023-08-11T06:36:32.040Z,19.86
2023-08-11T06:38:59.373Z,19.91
2023-08-11T06:41:26.776Z,19.98
2023-08-11T06:43:55.185Z,20.15
2023-08-11T06:46:22.668Z,20.30
2023-08-11T06:48:50.059Z,20.36
2023-08-11T06:51:17.393Z,20.38
2023-08-11T06:53:44.720Z,20.43
2023-08-11T06:56:12.830Z,20.46
2023-08-11T06:58:40.226Z,20.44
2023-08-11T07:01:07.796Z,20.42
2023-08-11T07:03:35.307Z,20.42
2023-08-11T07:06:03.593Z,20.44
2023-08-11T07:08:30.915Z,20.46
2023-08-11T07:10:58.392Z,20.48
2023-08-11T07:13:25.794Z,20.50
2023-08-11T07:15:55.871Z,20.52
2023-08-11T07:18:24.460Z,20.56
2023-08-11T07:20:51.736Z,20.67
2023-08-11T07:23:19.148Z,20.75
2023-08-11T07:25:46.541Z,20.88
2023-08-11T07:28:14.180Z,21.01
2023-08-11T07:30:41.931Z,21.12
2023-08-11T07:33:09.455Z,21.26
2023-08-11T07:35:36.812Z,21.36
2023-08-11T07:38:04.567Z,21.46
2023-08-11T07:40:32.413Z,21.54
2023-08-11T07:43:00.803Z,21.64
2023-08-11T07:45:28.450Z,21.67
2023-08-11T07:47:55.774Z,21.68
2023-08-11T07:50:23.087Z,21.71
2023-08-11T07:52:50.417Z,21.72
2023-08-11T07:55:17.975Z,21.73
2023-08-11T07:57:45.344Z,21.77
2023-08-11T08:00:17.481Z,21.79
2023-08-11T08:02:45.705Z,21.83
2023-08-11T08:05:13.780Z,21.86
2023-08-11T08:07:41.423Z,21.91
2023-08-11T08:10:12.874Z,21.97
2023-08-11T08:12:40.830Z,22.03
2023-08-11T08:15:10.567Z,22.09
2023-08-11T08:17:39.266Z,22.13
2023-08-11T08:20:10.872Z,22.17
2023-08-11T08:22:38.410Z,22.21
2023-08-11T08:25:09.565Z,22.25
2023-08-11T08:27:40.201Z,22.31
2023-08-11T08:30:12.943Z,22.35
2023-08-11T08:32:41.630Z,22.37
2023-08-11T08:35:10.698Z,22.41
2023-08-11T08:37:38.468Z,22.44
2023-08-11T08:40:08.455Z,22.48
2023-08-11T08:42:35.958Z,22.51
2023-08-11T08:45:04.942Z,22.55
2023-08-11T08:47:33.804Z,22.60
2023-08-11T08:50:02.995Z,22.63
2023-08-11T08:52:31.277Z,22.67
2023-08-11T08:54:59.062Z,22.71
2023-08-11T08:57:27.032Z,22.76
2023-08-11T08:59:57.313Z,22.81
2023-08-11T09:02:29.286Z,22.85
2023-08-11T09:04:56.769Z,22.92
2023-08-11T09:07:24.105Z,22.99
2023-08-11T09:09:51.802Z,23.05
2023-08-11T09:12:19.492Z,23.12
2023-08-11T09:14:47.094Z,23.16
2023-08-11T09:17:14.502Z,23.20
2023-08-11T09:19:45.418Z,23.26
2023-08-11T09:22:12.823Z,23.31
2023-08-11T09:24:41.864Z,23.36
2023-08-11T09:27:10.335Z,23.43
2023-08-11T09:29:38.388Z,23.51
2023-08-11T09:32:05.875Z,23.59
2023-08-11T09:34:33.266Z,23.68
2023-08-11T09:37:01.280Z,23.75
2023-08-11T09:39:30.384Z,23.84
2023-08-11T09:41:57.782Z,23.93
2023-08-11T09:44:25.243Z,24.00
2023-08-11T09:46:53.075Z,24.06
2023-08-11T09:49:20.522Z,24.12
2023-08-11T09:51:50.268Z,24.19
2023-08-11T09:54:20.264Z,24.26
2023-08-11T09:56:49.427Z,24.34
2023-08-11T09:59:20.775Z,24.44
2023-08-11T10:01:48.903Z,24.49
2023-08-11T10:04:21.511Z,24.55
2023-08-11T10:06:51.961Z,24.61
2023-08-11T10:09:23.234Z,24.64
2023-08-11T10:11:52.415Z,24.67
2023-08-11T10:14:21.804Z,24.71
2023-08-11T10:16:49.661Z,24.76
2023-08-11T10:19:18.634Z,24.86
2023-08-11T10:21:45.907Z,24.90
2023-08-11T10:24:14.290Z,24.97
2023-08-11T10:26:43.306Z,25.06
2023-08-11T10:29:13.049Z,25.13
2023-08-11T10:31:58.209Z,25.21
2023-08-11T10:34:26.813Z,25.28
2023-08-11T10:36:56.098Z,25.36
2023-08-11T10:39:23.683Z,25.37
2023-08-11T10:41:51.286Z,25.42
2023-08-11T10:44:27.549Z,25.50
2023-08-11T10:46:58.131Z,25.59
2023-08-11T10:49:41.594Z,25.71
2023-08-11T10:52:09.208Z,25.80
2023-08-11T10:54:36.858Z,25.90
2023-08-11T10:57:04.682Z,25.95
2023-08-11T10:59:34.287Z,25.95
2023-08-11T11:02:02.417Z,25.91
2023-08-11T11:04:34.085Z,25.90
2023-08-11T11:07:02.435Z,25.93
2023-08-11T11:09:30.681Z,26.02
2023-08-11T11:11:58.279Z,26.08
2023-08-11T11:14:28.497Z,26.08
2023-08-11T11:17:00.378Z,26.08
2023-08-11T11:19:28.415Z,26.05
2023-08-11T11:21:56.019Z,26.05
2023-08-11T11:24:23.460Z,26.02
2023-08-11T11:26:50.844Z,26.03
2023-08-11T11:29:24.699Z,26.06
2023-08-11T11:31:52.530Z,26.14
2023-08-11T11:34:20.786Z,26.24
2023-08-11T11:36:48.512Z,26.37
2023-08-11T11:39:15.916Z,26.52
2023-08-11T11:41:43.254Z,26.63
2023-08-11T11:44:10.639Z,26.73
2023-08-11T11:46:38.058Z,26.82
2023-08-11T11:49:19.628Z,26.92
2023-08-11T11:51:56.035Z,27.03
2023-08-11T11:54:23.360Z,27.09
2023-08-11T11:57:03.432Z,27.10
2023-08-11T11:59:33.544Z,27.08
2023-08-11T12:02:02.309Z,27.12
2023-08-11T12:04:30.350Z,27.16
2023-08-11T12:06:58.059Z,27.23
2023-08-11T12:09:25.529Z,27.28
2023-08-11T12:11:56.377Z,27.35
2023-08-11T12:14:27.241Z,27.39
2023-08-11T12:16:54.606Z,27.46
2023-08-11T12:19:22.146Z,27.42
2023-08-11T12:21:51.284Z,27.31
2023-08-11T12:24:19.258Z,27.23
2023-08-11T12:26:46.643Z,27.26
2023-08-11T12:29:13.940Z,27.31
2023-08-11T12:31:41.216Z,27.37
2023-08-11T12:34:08.456Z,27.43
2023-08-11T12:36:35.795Z,27.50
2023-08-11T12:39:04.295Z,27.54
2023-08-11T12:41:31.713Z,27.59
2023-08-11T12:43:59.250Z,27.61
2023-08-11T12:46:26.618Z,27.67
2023-08-11T12:48:53.912Z,27.68
2023-08-11T12:51:21.303Z,27.72
2023-08-11T12:53:48.676Z,27.73
2023-08-11T12:56:16.023Z,27.74
2023-08-11T12:58:43.909Z,27.75
2023-08-11T13:01:12.898Z,27.80
2023-08-11T13:03:41.901Z,27.83
2023-08-11T13:06:12.190Z,27.77
2023-08-11T13:08:39.339Z,27.73
2023-08-11T13:11:06.608Z,27.78
2023-08-11T13:13:33.966Z,27.80
2023-08-11T13:16:01.338Z,27.78
2023-08-11T13:18:28.662Z,27.86
2023-08-11T13:20:56.001Z,27.97
2023-08-11T13:23:23.558Z,28.08
2023-08-11T13:25:50.901Z,28.15
2023-08-11T13:28:18.719Z,28.08
2023-08-11T13:30:46.029Z,28.08
2023-08-11T13:33:13.440Z,28.20
2023-08-11T13:35:40.673Z,28.28
2023-08-11T13:38:08.414Z,28.35
2023-08-11T13:40:35.780Z,28.35
2023-08-11T13:43:05.412Z,28.39
2023-08-11T13:45:32.769Z,28.42
2023-08-11T13:48:00.088Z,28.43
2023-08-11T13:50:27.455Z,28.47
2023-08-11T13:52:54.806Z,28.49
2023-08-11T13:55:22.120Z,28.45
2023-08-11T13:57:49.578Z,28.45
2023-08-11T14:00:17.361Z,28.45
2023-08-11T14:02:44.660Z,28.49
2023-08-11T14:05:12.129Z,28.51
2023-08-11T14:07:39.587Z,28.56
2023-08-11T14:10:07.699Z,28.55
2023-08-11T14:12:35.040Z,28.53
2023-08-11T14:15:02.797Z,28.45
2023-08-11T14:17:30.272Z,28.41
2023-08-11T14:19:57.723Z,28.41
2023-08-11T14:22:25.123Z,28.44
2023-08-11T14:24:54.754Z,28.42
2023-08-11T14:27:23.662Z,28.32
2023-08-11T14:29:50.986Z,28.26
2023-08-11T14:32:24.501Z,28.21
2023-08-11T14:34:53.873Z,28.09
2023-08-11T14:37:22.180Z,27.98
2023-08-11T14:39:49.551Z,27.86
2023-08-11T14:42:17.991Z,27.73
2023-08-11T14:44:45.409Z,27.59
2023-08-11T14:47:16.169Z,27.51
2023-08-11T14:49:45.106Z,27.41
2023-08-11T14:52:14.159Z,27.40
2023-08-11T14:54:42.229Z,27.51
2023-08-11T14:57:13.756Z,27.53
2023-08-11T14:59:41.300Z,27.52
2023-08-11T15:02:09.528Z,27.50
2023-08-11T15:04:37.591Z,27.51
2023-08-11T15:07:05.149Z,27.47
2023-08-11T15:09:32.712Z,27.37
2023-08-11T15:12:00.139Z,27.27
2023-08-11T15:14:27.485Z,27.22
2023-08-11T15:16:55.123Z,27.18
2023-08-11T15:19:23.304Z,27.12
2023-08-11T15:21:50.590Z,27.03
2023-08-11T15:24:17.996Z,26.97
2023-08-11T15:26:45.555Z,26.93
2023-08-11T15:29:13.033Z,26.90
2023-08-11T15:31:40.467Z,26.87
2023-08-11T15:34:07.949Z,26.88
2023-08-11T15:36:35.210Z,26.90
2023-08-11T15:39:02.551Z,26.88
2023-08-11T15:41:30.046Z,26.84
2023-08-11T15:43:57.338Z,26.81
2023-08-11T15:46:24.779Z,26.74
2023-08-11T15:48:53.659Z,26.69
2023-08-11T15:51:21.274Z,26.64
2023-08-11T15:53:48.657Z,26.62
2023-08-11T15:56:15.951Z,26.59
2023-08-11T15:58:43.249Z,26.56
2023-08-11T16:01:10.597Z,26.56
2023-08-11T16:03:38.023Z,26.57
2023-08-11T16:06:06.801Z,26.60
2023-08-11T16:08:34.296Z,26.60
2023-08-11T16:11:01.810Z,26.61
2023-08-11T16:13:29.183Z,26.59
2023-08-11T16:15:56.614Z,26.57
2023-08-11T16:18:23.957Z,26.55
2023-08-11T16:20:51.346Z,26.48
2023-08-11T16:23:18.637Z,26.44
2023-08-11T16:25:46.095Z,26.39
2023-08-11T16:28:15.777Z,26.33
2023-08-11T16:30:43.409Z,26.26
2023-08-11T16:33:11.300Z,26.20
2023-08-11T16:35:38.885Z,26.15
2023-08-11T16:38:06.359Z,26.12
2023-08-11T16:40:34.210Z,26.10
2023-08-11T16:43:02.226Z,26.05
2023-08-11T16:45:29.802Z,26.00
2023-08-11T16:47:57.321Z,25.97
2023-08-11T16:50:25.137Z,25.96
2023-08-11T16:52:54.534Z,25.90
2023-08-11T16:55:22.898Z,25.85
2023-08-11T16:57:50.724Z,25.81
2023-08-11T17:00:18.308Z,25.76
2023-08-11T17:02:45.896Z,25.72
2023-08-11T17:05:13.337Z,25.59
2023-08-11T17:07:41.830Z,25.40
2023-08-11T17:10:09.676Z,25.16
2023-08-11T17:12:37.495Z,24.97
2023-08-11T17:15:06.013Z,24.76
2023-08-11T17:17:33.388Z,24.56
2023-08-11T17:20:00.832Z,24.37
2023-08-11T17:22:28.214Z,24.22
2023-08-11T17:24:58.990Z,24.08
2023-08-11T17:27:26.379Z,23.90
2023-08-11T17:29:53.704Z,23.74
2023-08-11T17:32:21.375Z,23.63
2023-08-11T17:34:57.858Z,23.51
2023-08-11T17:37:25.876Z,23.41
2023-08-11T17:39:53.344Z,23.31
2023-08-11T17:42:20.805Z,23.21
2023-08-11T17:44:48.152Z,23.16
2023-08-11T17:47:15.560Z,23.10
2023-08-11T17:49:43.263Z,23.05
2023-08-11T17:52:10.875Z,23.01
2023-08-11T17:54:39.196Z,22.94
2023-08-11T17:57:06.853Z,22.85
2023-08-11T17:59:35.673Z,22.77
2023-08-11T18:02:03.026Z,22.73
2023-08-11T18:04:30.387Z,22.71
2023-08-11T18:06:57.804Z,22.66
2023-08-11T18:09:25.185Z,22.62
2023-08-11T18:11:53.226Z,22.58
2023-08-11T18:14:20.580Z,22.56
2023-08-11T18:16:48.008Z,22.52
2023-08-11T18:19:15.447Z,22.45
2023-08-11T18:21:42.924Z,22.43
2023-08-11T18:24:10.517Z,22.38
2023-08-11T18:26:37.991Z,22.31
2023-08-11T18:29:05.715Z,22.23
2023-08-11T18:31:33.133Z,22.17
2023-08-11T18:34:03.857Z,22.11
2023-08-11T18:36:32.588Z,22.07
2023-08-11T18:39:00.175Z,22.02
2023-08-11T18:41:27.533Z,21.96
2023-08-11T18:43:54.797Z,21.88
2023-08-11T18:46:22.330Z,21.84
2023-08-11T18:48:49.984Z,21.80
2023-08-11T18:51:17.608Z,21.76
2023-08-11T18:53:46.530Z,21.70
2023-08-11T18:56:13.910Z,21.67
2023-08-11T18:58:41.230Z,21.62
2023-08-11T19:01:08.523Z,21.55
2023-08-11T19:03:36.185Z,21.50
2023-08-11T19:06:04.075Z,21.46
2023-08-11T19:08:31.770Z,21.39
2023-08-11T19:10:59.246Z,21.35
2023-08-11T19:13:27.297Z,21.33
2023-08-11T19:15:54.694Z,21.30
2023-08-11T19:18:22.252Z,21.26
2023-08-11T19:20:49.929Z,21.22
2023-08-11T19:23:17.357Z,21.19
2023-08-11T19:25:44.810Z,21.16
2023-08-11T19:28:13.249Z,21.15
2023-08-11T19:30:40.853Z,21.11
2023-08-11T19:33:11.426Z,21.09
2023-08-11T19:35:38.938Z,21.06
2023-08-11T19:38:06.317Z,21.00
2023-08-11T19:40:33.753Z,20.98
2023-08-11T19:43:02.310Z,20.94
2023-08-11T19:45:29.866Z,20.92
2023-08-11T19:47:57.257Z,20.89
2023-08-11T19:50:24.660Z,20.86
2023-08-11T19:52:53.158Z,20.82
2023-08-11T19:55:20.479Z,20.80
2023-08-11T19:57:47.859Z,20.77
2023-08-11T20:00:15.659Z,20.74
2023-08-11T20:02:43.133Z,20.71
2023-08-11T20:05:11.276Z,20.70
2023-08-11T20:07:38.845Z,20.68
2023-08-11T20:10:07.108Z,20.65
2023-08-11T20:12:34.843Z,20.63
2023-08-11T20:15:02.184Z,20.59
2023-08-11T20:17:29.574Z,20.55
2023-08-11T20:19:57.082Z,20.51
2023-08-11T20:22:24.413Z,20.49
2023-08-11T20:24:51.847Z,20.46
2023-08-11T20:27:22.016Z,20.43
2023-08-11T20:29:50.414Z,20.38
2023-08-11T20:32:18.023Z,20.36
2023-08-11T20:34:45.450Z,20.34
2023-08-11T20:37:13.085Z,20.33
2023-08-11T20:39:43.702Z,20.32
2023-08-11T20:42:11.226Z,20.30
2023-08-11T20:44:38.624Z,20.28
2023-08-11T20:47:06.144Z,20.27
2023-08-11T20:49:33.483Z,20.23
2023-08-11T20:52:01.784Z,20.22
2023-08-11T20:54:29.857Z,20.20
2023-08-11T20:57:00.070Z,20.18
2023-08-11T20:59:28.153Z,20.16
2023-08-11T21:01:56.926Z,20.13
2023-08-11T21:04:24.423Z,20.11
2023-08-11T21:06:51.831Z,20.07
2023-08-11T21:09:19.489Z,20.05
2023-08-11T21:11:46.891Z,20.03
2023-08-11T21:14:14.252Z,20.01
2023-08-11T21:16:42.315Z,19.98
2023-08-11T21:19:09.798Z,19.97
2023-08-11T21:21:37.380Z,19.94
2023-08-11T21:24:05.492Z,19.94
2023-08-11T21:26:33.030Z,19.89
2023-08-11T21:29:00.374Z,19.88
2023-08-11T21:31:28.149Z,19.88
2023-08-11T21:34:00.806Z,19.86
2023-08-11T21:36:28.580Z,19.84
2023-08-11T21:38:56.499Z,19.83
2023-08-11T21:41:23.851Z,19.82
2023-08-11T21:43:51.392Z,19.80
2023-08-11T21:46:18.899Z,19.79
2023-08-11T21:48:46.239Z,19.78
2023-08-11T21:51:14.689Z,19.76
2023-08-11T21:53:42.372Z,19.75
2023-08-11T21:56:10.068Z,19.74
2023-08-11T21:58:38.337Z,19.72
2023-08-11T22:01:05.771Z,19.70
2023-08-11T22:03:33.089Z,19.69
2023-08-11T22:06:00.411Z,19.66
2023-08-11T22:08:27.873Z,19.65
2023-08-11T22:10:55.296Z,19.63
2023-08-11T22:13:22.641Z,19.61
2023-08-11T22:15:51.006Z,19.60
2023-08-11T22:18:18.443Z,19.58
2023-08-11T22:20:45.817Z,19.55
2023-08-11T22:23:13.231Z,19.52
2023-08-11T22:25:40.427Z,19.50
2023-08-11T22:28:08.038Z,19.47
2023-08-11T22:30:36.135Z,19.45
2023-08-11T22:33:03.919Z,19.44
2023-08-11T22:35:32.205Z,19.42
2023-08-11T22:37:59.585Z,19.41
2023-08-11T22:40:26.951Z,19.40
2023-08-11T22:42:54.402Z,19.38
2023-08-11T22:45:22.653Z,19.36
2023-08-11T22:47:51.165Z,19.36
2023-08-11T22:50:18.429Z,19.34
2023-08-11T22:52:46.382Z,19.34
2023-08-11T22:55:13.909Z,19.33
2023-08-11T22:57:42.514Z,19.31
2023-08-11T23:00:12.055Z,19.30
2023-08-11T23:02:40.561Z,19.28
2023-08-11T23:05:09.385Z,19.28
2023-08-11T23:07:39.264Z,19.27
2023-08-11T23:10:07.148Z,19.23
2023-08-11T23:12:34.607Z,19.24
2023-08-11T23:15:02.255Z,19.22
2023-08-11T23:17:33.939Z,19.21
2023-08-11T23:20:02.050Z,19.18
2023-08-11T23:22:29.408Z,19.17
2023-08-11T23:24:56.826Z,19.16
2023-08-11T23:27:31.939Z,19.16
2023-08-11T23:30:00.776Z,19.15
2023-08-11T23:32:33.693Z,19.16
2023-08-11T23:35:01.347Z,19.15
2023-08-11T23:37:28.925Z,19.14
2023-08-11T23:39:56.802Z,19.14
2023-08-11T23:42:28.381Z,19.13
2023-08-11T23:44:56.066Z,19.14
2023-08-11T23:47:23.514Z,19.13
2023-08-11T23:49:50.876Z,19.13
2023-08-11T23:52:19.595Z,19.12
2023-08-11T23:54:53.465Z,19.12
2023-08-11T23:57:23.618Z,19.10
2023-08-11T23:59:50.877Z,19.10
